Degray, South Dakota
Current Conditions -  °F | °C
As of 3:53 AM on Saturday 20 Dec 2014 (Local Time) from KPIR Reporting Station
Moderate Fog Moderate Fog  
Wind Chill: 16°   Ceiling: 100
Heat Index: 16°   Visibility: 0mi
Dew Point: 12°   Wind: 3mph
Humidity: 84%   Direction: 80°E
Pressure: 29.95"   Gusts: NA
Location:  44.4586°N, 99.8388°W
Report Text: KPIR 200953Z AUTO 08003KT M1/4SM FZFG VV001 M09/M11 A2995 RMK AO2 SLP166 I1000 T10891111
Loading
Personal Weather Stations






























Interactive Weather Map New forecast layout! Learn more

10-Day Weather Forecast

Advertisements
Track Severe Weather on mobile